sensor_id;sensor_type;location;lat;lon;timestamp;pressure;altitude;pressure_sealevel;temperature;humidity
3250;BME280;1637;42.020;23.992;2022-11-20T00:01:20;92342.69;;;17.05;73.08
3250;BME280;1637;42.020;23.992;2022-11-20T00:03:47;92346.44;;;17.07;73.14
3250;BME280;1637;42.020;23.992;2022-11-20T00:06:17;92349.94;;;16.99;73.76
3250;BME280;1637;42.020;23.992;2022-11-20T00:08:44;92326.31;;;16.90;73.47
3250;BME280;1637;42.020;23.992;2022-11-20T00:11:13;92303.50;;;16.82;73.25
3250;BME280;1637;42.020;23.992;2022-11-20T00:13:40;92327.22;;;17.05;72.92
3250;BME280;1637;42.020;23.992;2022-11-20T00:16:10;92324.22;;;17.03;73.27
3250;BME280;1637;42.020;23.992;2022-11-20T00:18:37;92335.50;;;17.02;73.54
3250;BME280;1637;42.020;23.992;2022-11-20T00:21:05;92318.53;;;17.01;73.24
3250;BME280;1637;42.020;23.992;2022-11-20T00:23:34;92321.97;;;16.93;73.59
3250;BME280;1637;42.020;23.992;2022-11-20T00:26:02;92313.72;;;16.96;73.78
3250;BME280;1637;42.020;23.992;2022-11-20T00:28:30;92325.13;;;17.00;73.29
3250;BME280;1637;42.020;23.992;2022-11-20T00:31:01;92320.94;;;16.99;73.36
3250;BME280;1637;42.020;23.992;2022-11-20T00:33:28;92306.03;;;16.95;73.43
3250;BME280;1637;42.020;23.992;2022-11-20T00:35:59;92295.50;;;17.06;72.53
3250;BME280;1637;42.020;23.992;2022-11-20T00:38:26;92308.44;;;17.11;72.15
3250;BME280;1637;42.020;23.992;2022-11-20T00:40:56;92294.75;;;17.24;72.00
3250;BME280;1637;42.020;23.992;2022-11-20T00:43:23;92295.28;;;17.37;70.90
3250;BME280;1637;42.020;23.992;2022-11-20T00:45:50;92306.72;;;17.41;71.04
3250;BME280;1637;42.020;23.992;2022-11-20T00:48:17;92309.88;;;17.30;71.83
3250;BME280;1637;42.020;23.992;2022-11-20T00:50:43;92298.16;;;17.33;71.51
3250;BME280;1637;42.020;23.992;2022-11-20T00:53:10;92273.66;;;17.28;71.38
3250;BME280;1637;42.020;23.992;2022-11-20T00:55:37;92280.28;;;17.27;71.86
3250;BME280;1637;42.020;23.992;2022-11-20T00:58:05;92297.84;;;17.31;71.56
3250;BME280;1637;42.020;23.992;2022-11-20T01:00:32;92283.41;;;17.34;71.26
3250;BME280;1637;42.020;23.992;2022-11-20T01:02:59;92286.72;;;17.29;71.36
3250;BME280;1637;42.020;23.992;2022-11-20T01:05:25;92274.97;;;17.41;70.55
3250;BME280;1637;42.020;23.992;2022-11-20T01:07:52;92277.25;;;17.43;70.45
3250;BME280;1637;42.020;23.992;2022-11-20T01:10:19;92279.06;;;17.28;71.27
3250;BME280;1637;42.020;23.992;2022-11-20T01:12:46;92284.53;;;17.09;72.18
3250;BME280;1637;42.020;23.992;2022-11-20T01:15:35;92279.09;;;17.18;71.88
3250;BME280;1637;42.020;23.992;2022-11-20T01:18:02;92278.81;;;17.07;72.16
3250;BME280;1637;42.020;23.992;2022-11-20T01:20:29;92265.47;;;17.04;71.88
3250;BME280;1637;42.020;23.992;2022-11-20T01:22:55;92256.72;;;17.09;71.96
3250;BME280;1637;42.020;23.992;2022-11-20T01:25:22;92252.34;;;17.21;71.53
3250;BME280;1637;42.020;23.992;2022-11-20T01:27:49;92264.38;;;17.10;71.84
3250;BME280;1637;42.020;23.992;2022-11-20T01:30:16;92255.50;;;17.19;70.73
3250;BME280;1637;42.020;23.992;2022-11-20T01:32:44;92252.66;;;17.13;70.88
3250;BME280;1637;42.020;23.992;2022-11-20T01:35:11;92240.63;;;17.14;70.70
3250;BME280;1637;42.020;23.992;2022-11-20T01:37:38;92252.66;;;17.13;71.13
3250;BME280;1637;42.020;23.992;2022-11-20T01:40:06;92254.34;;;17.02;71.61
3250;BME280;1637;42.020;23.992;2022-11-20T01:42:32;92253.13;;;17.03;71.53
3250;BME280;1637;42.020;23.992;2022-11-20T01:45:49;92237.66;;;16.85;71.92
3250;BME280;1637;42.020;23.992;2022-11-20T01:48:22;92237.94;;;17.05;71.06
3250;BME280;1637;42.020;23.992;2022-11-20T01:50:50;92238.38;;;17.13;71.11
3250;BME280;1637;42.020;23.992;2022-11-20T01:53:19;92232.25;;;16.85;71.43
3250;BME280;1637;42.020;23.992;2022-11-20T01:55:49;92249.09;;;16.98;71.61
3250;BME280;1637;42.020;23.992;2022-11-20T01:58:19;92233.75;;;16.95;71.65
3250;BME280;1637;42.020;23.992;2022-11-20T02:00:46;92223.69;;;16.96;71.57
3250;BME280;1637;42.020;23.992;2022-11-20T02:03:16;92233.63;;;16.80;72.22
3250;BME280;1637;42.020;23.992;2022-11-20T02:05:49;92231.38;;;16.79;72.02
3250;BME280;1637;42.020;23.992;2022-11-20T02:08:19;92230.16;;;16.89;71.42
3250;BME280;1637;42.020;23.992;2022-11-20T02:10:46;92245.63;;;16.98;70.99
3250;BME280;1637;42.020;23.992;2022-11-20T02:13:13;92252.25;;;16.88;71.83
3250;BME280;1637;42.020;23.992;2022-11-20T02:15:57;92245.03;;;16.94;71.68
3250;BME280;1637;42.020;23.992;2022-11-20T02:18:24;92245.63;;;16.89;71.12
3250;BME280;1637;42.020;23.992;2022-11-20T02:20:58;92247.72;;;17.03;71.23
3250;BME280;1637;42.020;23.992;2022-11-20T02:23:31;92243.38;;;16.87;71.21
3250;BME280;1637;42.020;23.992;2022-11-20T02:26:02;92250.13;;;16.92;71.26
3250;BME280;1637;42.020;23.992;2022-11-20T02:28:32;92261.09;;;16.97;70.77
3250;BME280;1637;42.020;23.992;2022-11-20T02:30:59;92260.81;;;16.95;71.57
3250;BME280;1637;42.020;23.992;2022-11-20T02:33:26;92265.63;;;17.00;71.36
3250;BME280;1637;42.020;23.992;2022-11-20T02:35:53;92254.91;;;17.06;70.71
3250;BME280;1637;42.020;23.992;2022-11-20T02:38:20;92264.72;;;17.03;71.01
3250;BME280;1637;42.020;23.992;2022-11-20T02:40:47;92275.09;;;16.96;71.46
3250;BME280;1637;42.020;23.992;2022-11-20T02:43:16;92261.25;;;16.94;71.04
3250;BME280;1637;42.020;23.992;2022-11-20T02:45:43;92257.94;;;16.90;71.66
3250;BME280;1637;42.020;23.992;2022-11-20T02:48:10;92264.13;;;16.90;71.69
3250;BME280;1637;42.020;23.992;2022-11-20T02:50:38;92248.47;;;16.85;71.44
3250;BME280;1637;42.020;23.992;2022-11-20T02:53:05;92230.94;;;16.62;71.84
3250;BME280;1637;42.020;23.992;2022-11-20T02:55:32;92254.22;;;16.78;71.82
3250;BME280;1637;42.020;23.992;2022-11-20T02:57:59;92242.81;;;16.83;72.05
3250;BME280;1637;42.020;23.992;2022-11-20T03:00:27;92201.19;;;16.53;72.11
3250;BME280;1637;42.020;23.992;2022-11-20T03:02:54;92221.78;;;16.78;71.76
3250;BME280;1637;42.020;23.992;2022-11-20T03:05:21;92230.63;;;16.78;71.80
3250;BME280;1637;42.020;23.992;2022-11-20T03:07:48;92234.53;;;16.68;72.37
3250;BME280;1637;42.020;23.992;2022-11-20T03:10:15;92242.19;;;16.70;72.48
3250;BME280;1637;42.020;23.992;2022-11-20T03:12:42;92257.06;;;16.83;71.67
3250;BME280;1637;42.020;23.992;2022-11-20T03:15:09;92261.13;;;16.79;71.87
3250;BME280;1637;42.020;23.992;2022-11-20T03:17:37;92258.56;;;16.84;71.47
3250;BME280;1637;42.020;23.992;2022-11-20T03:20:05;92266.22;;;16.86;71.54
3250;BME280;1637;42.020;23.992;2022-11-20T03:22:32;92255.41;;;16.86;71.41
3250;BME280;1637;42.020;23.992;2022-11-20T03:24:59;92257.34;;;16.86;71.43
3250;BME280;1637;42.020;23.992;2022-11-20T03:27:26;92265.00;;;16.87;71.72
3250;BME280;1637;42.020;23.992;2022-11-20T03:29:53;92261.56;;;16.87;71.84
3250;BME280;1637;42.020;23.992;2022-11-20T03:32:19;92254.81;;;16.82;72.11
3250;BME280;1637;42.020;23.992;2022-11-20T03:34:48;92246.41;;;16.80;71.94
3250;BME280;1637;42.020;23.992;2022-11-20T03:37:14;92252.56;;;16.80;72.01
3250;BME280;1637;42.020;23.992;2022-11-20T03:39:41;92265.66;;;16.82;72.26
3250;BME280;1637;42.020;23.992;2022-11-20T03:42:08;92274.94;;;16.72;72.27
3250;BME280;1637;42.020;23.992;2022-11-20T03:44:56;92276.75;;;16.75;72.24
3250;BME280;1637;42.020;23.992;2022-11-20T03:47:23;92274.22;;;16.80;72.19
3250;BME280;1637;42.020;23.992;2022-11-20T03:49:51;92288.31;;;16.84;72.20
3250;BME280;1637;42.020;23.992;2022-11-20T03:52:17;92290.00;;;16.82;71.98
3250;BME280;1637;42.020;23.992;2022-11-20T03:54:44;92289.97;;;16.73;72.09
3250;BME280;1637;42.020;23.992;2022-11-20T03:57:11;92279.00;;;16.76;72.61
3250;BME280;1637;42.020;23.992;2022-11-20T03:59:38;92282.63;;;16.73;72.45
3250;BME280;1637;42.020;23.992;2022-11-20T04:02:05;92275.25;;;16.74;72.52
3250;BME280;1637;42.020;23.992;2022-11-20T04:04:31;92276.16;;;16.71;72.48
3250;BME280;1637;42.020;23.992;2022-11-20T04:06:59;92279.47;;;16.75;72.03
3250;BME280;1637;42.020;23.992;2022-11-20T04:09:26;92265.34;;;16.71;72.19
3250;BME280;1637;42.020;23.992;2022-11-20T04:11:53;92273.47;;;16.80;71.18
3250;BME280;1637;42.020;23.992;2022-11-20T04:14:20;92277.66;;;16.72;71.95
3250;BME280;1637;42.020;23.992;2022-11-20T04:16:47;92276.47;;;16.82;71.01
3250;BME280;1637;42.020;23.992;2022-11-20T04:19:15;92285.91;;;16.87;71.11
3250;BME280;1637;42.020;23.992;2022-11-20T04:21:42;92287.41;;;16.69;71.62
3250;BME280;1637;42.020;23.992;2022-11-20T04:24:10;92288.16;;;16.70;71.73
3250;BME280;1637;42.020;23.992;2022-11-20T04:26:37;92297.19;;;16.76;71.29
3250;BME280;1637;42.020;23.992;2022-11-20T04:29:05;92274.78;;;16.66;71.54
3250;BME280;1637;42.020;23.992;2022-11-20T04:31:33;92273.31;;;16.74;71.68
3250;BME280;1637;42.020;23.992;2022-11-20T04:34:01;92249.38;;;16.27;72.49
3250;BME280;1637;42.020;23.992;2022-11-20T04:36:29;92284.53;;;16.45;72.61
3250;BME280;1637;42.020;23.992;2022-11-20T04:38:57;92283.81;;;16.63;71.59
3250;BME280;1637;42.020;23.992;2022-11-20T04:41:27;92274.81;;;16.75;71.14
3250;BME280;1637;42.020;23.992;2022-11-20T04:43:56;92268.50;;;16.69;71.41
3250;BME280;1637;42.020;23.992;2022-11-20T04:46:25;92281.72;;;16.76;70.98
3250;BME280;1637;42.020;23.992;2022-11-20T04:48:53;92279.91;;;16.64;71.64
3250;BME280;1637;42.020;23.992;2022-11-20T04:51:20;92271.78;;;16.64;71.58
3250;BME280;1637;42.020;23.992;2022-11-20T04:53:47;92264.56;;;16.61;71.43
3250;BME280;1637;42.020;23.992;2022-11-20T04:56:14;92275.56;;;16.67;71.25
3250;BME280;1637;42.020;23.992;2022-11-20T04:58:43;92275.69;;;16.63;71.34
3250;BME280;1637;42.020;23.992;2022-11-20T05:01:11;92269.41;;;16.75;70.14
3250;BME280;1637;42.020;23.992;2022-11-20T05:03:38;92254.81;;;16.64;70.38
3250;BME280;1637;42.020;23.992;2022-11-20T05:06:06;92281.13;;;16.81;69.69
3250;BME280;1637;42.020;23.992;2022-11-20T05:08:34;92271.63;;;16.86;69.73
3250;BME280;1637;42.020;23.992;2022-11-20T05:11:02;92278.09;;;16.89;69.49
3250;BME280;1637;42.020;23.992;2022-11-20T05:13:29;92270.75;;;16.80;69.52
3250;BME280;1637;42.020;23.992;2022-11-20T05:16:02;92261.84;;;16.89;69.83
3250;BME280;1637;42.020;23.992;2022-11-20T05:18:29;92254.81;;;16.82;69.70
3250;BME280;1637;42.020;23.992;2022-11-20T05:20:57;92267.28;;;16.89;69.33
3250;BME280;1637;42.020;23.992;2022-11-20T05:23:24;92273.75;;;16.82;69.59
3250;BME280;1637;42.020;23.992;2022-11-20T05:25:52;92251.66;;;16.65;69.27
3250;BME280;1637;42.020;23.992;2022-11-20T05:28:19;92257.81;;;16.93;68.98
3250;BME280;1637;42.020;23.992;2022-11-20T05:30:47;92254.66;;;16.95;69.08
3250;BME280;1637;42.020;23.992;2022-11-20T05:33:15;92262.47;;;17.02;68.67
3250;BME280;1637;42.020;23.992;2022-11-20T05:35:42;92261.84;;;16.98;68.91
3250;BME280;1637;42.020;23.992;2022-11-20T05:38:09;92232.88;;;16.71;68.96
3250;BME280;1637;42.020;23.992;2022-11-20T05:40:37;92259.00;;;16.92;69.20
3250;BME280;1637;42.020;23.992;2022-11-20T05:43:03;92261.72;;;17.01;68.51
3250;BME280;1637;42.020;23.992;2022-11-20T05:45:30;92254.34;;;17.02;68.81
3250;BME280;1637;42.020;23.992;2022-11-20T05:47:58;92258.84;;;16.96;69.04
3250;BME280;1637;42.020;23.992;2022-11-20T05:50:27;92262.00;;;16.94;69.14
3250;BME280;1637;42.020;23.992;2022-11-20T05:52:54;92254.06;;;16.81;69.62
3250;BME280;1637;42.020;23.992;2022-11-20T05:55:24;92265.00;;;16.87;69.87
3250;BME280;1637;42.020;23.992;2022-11-20T05:57:52;92273.00;;;16.81;70.11
3250;BME280;1637;42.020;23.992;2022-11-20T06:00:20;92281.25;;;16.78;69.78
3250;BME280;1637;42.020;23.992;2022-11-20T06:02:47;92279.47;;;16.75;70.18
3250;BME280;1637;42.020;23.992;2022-11-20T06:05:13;92288.19;;;16.79;69.63
3250;BME280;1637;42.020;23.992;2022-11-20T06:07:42;92293.13;;;16.80;69.93
3250;BME280;1637;42.020;23.992;2022-11-20T06:10:09;92297.78;;;16.89;69.50
3250;BME280;1637;42.020;23.992;2022-11-20T06:12:36;92306.38;;;17.48;68.13
3250;BME280;1637;42.020;23.992;2022-11-20T06:15:03;92304.97;;;18.84;64.89
3250;BME280;1637;42.020;23.992;2022-11-20T06:17:30;92320.03;;;20.18;60.81
3250;BME280;1637;42.020;23.992;2022-11-20T06:19:57;92318.94;;;21.83;56.62
3250;BME280;1637;42.020;23.992;2022-11-20T06:22:24;92319.41;;;21.24;56.55
3250;BME280;1637;42.020;23.992;2022-11-20T06:24:52;92319.34;;;22.76;53.31
3250;BME280;1637;42.020;23.992;2022-11-20T06:27:19;92319.19;;;22.48;53.68
3250;BME280;1637;42.020;23.992;2022-11-20T06:29:46;92326.91;;;21.87;54.05
3250;BME280;1637;42.020;23.992;2022-11-20T06:32:12;92326.13;;;22.44;53.97
3250;BME280;1637;42.020;23.992;2022-11-20T06:34:39;92310.16;;;21.42;54.81
3250;BME280;1637;42.020;23.992;2022-11-20T06:37:06;92298.19;;;21.08;56.95
3250;BME280;1637;42.020;23.992;2022-11-20T06:39:33;92321.09;;;20.76;57.52
3250;BME280;1637;42.020;23.992;2022-11-20T06:42:01;92286.50;;;20.41;58.63
3250;BME280;1637;42.020;23.992;2022-11-20T06:44:28;92304.78;;;22.42;54.12
3250;BME280;1637;42.020;23.992;2022-11-20T06:46:54;92289.19;;;23.13;52.07
3250;BME280;1637;42.020;23.992;2022-11-20T06:49:21;92285.91;;;21.44;55.49
3250;BME280;1637;42.020;23.992;2022-11-20T06:51:48;92279.75;;;20.98;56.21
3250;BME280;1637;42.020;23.992;2022-11-20T06:54:15;92289.38;;;20.52;57.98
3250;BME280;1637;42.020;23.992;2022-11-20T06:56:42;92284.47;;;20.77;57.08
3250;BME280;1637;42.020;23.992;2022-11-20T06:59:10;92282.56;;;21.55;55.11
3250;BME280;1637;42.020;23.992;2022-11-20T07:01:37;92281.06;;;20.82;56.58
3250;BME280;1637;42.020;23.992;2022-11-20T07:04:04;92285.25;;;21.81;54.78
3250;BME280;1637;42.020;23.992;2022-11-20T07:06:31;92289.25;;;21.54;55.14
3250;BME280;1637;42.020;23.992;2022-11-20T07:08:57;92277.03;;;20.98;55.83
3250;BME280;1637;42.020;23.992;2022-11-20T07:11:24;92284.47;;;21.49;54.94
3250;BME280;1637;42.020;23.992;2022-11-20T07:13:51;92275.22;;;21.67;54.81
3250;BME280;1637;42.020;23.992;2022-11-20T07:16:19;92303.66;;;21.34;54.29
3250;BME280;1637;42.020;23.992;2022-11-20T07:18:46;92289.06;;;21.63;54.36
3250;BME280;1637;42.020;23.992;2022-11-20T07:21:13;92282.59;;;21.09;55.92
3250;BME280;1637;42.020;23.992;2022-11-20T07:23:40;92272.66;;;20.24;57.73
3250;BME280;1637;42.020;23.992;2022-11-20T07:26:08;92283.94;;;20.17;58.30
3250;BME280;1637;42.020;23.992;2022-11-20T07:28:36;92279.06;;;21.03;56.36
3250;BME280;1637;42.020;23.992;2022-11-20T07:31:04;92293.38;;;20.98;56.27
3250;BME280;1637;42.020;23.992;2022-11-20T07:33:33;92272.16;;;21.07;56.03
3250;BME280;1637;42.020;23.992;2022-11-20T07:36:00;92280.34;;;21.07;56.62
3250;BME280;1637;42.020;23.992;2022-11-20T07:38:27;92271.41;;;21.27;55.87
3250;BME280;1637;42.020;23.992;2022-11-20T07:40:54;92261.88;;;22.43;53.43
3250;BME280;1637;42.020;23.992;2022-11-20T07:43:22;92285.81;;;22.22;53.13
3250;BME280;1637;42.020;23.992;2022-11-20T07:45:48;92285.91;;;21.44;54.70
3250;BME280;1637;42.020;23.992;2022-11-20T07:48:15;92286.25;;;21.26;55.58
3250;BME280;1637;42.020;23.992;2022-11-20T07:50:43;92297.50;;;21.97;54.23
3250;BME280;1637;42.020;23.992;2022-11-20T07:53:11;92282.91;;;21.68;54.89
3250;BME280;1637;42.020;23.992;2022-11-20T07:55:38;92282.97;;;21.22;55.92
3250;BME280;1637;42.020;23.992;2022-11-20T07:58:04;92265.69;;;20.58;57.90
3250;BME280;1637;42.020;23.992;2022-11-20T08:00:31;92291.75;;;20.85;56.82
3250;BME280;1637;42.020;23.992;2022-11-20T08:02:58;92286.91;;;20.95;57.11
3250;BME280;1637;42.020;23.992;2022-11-20T08:05:25;92287.50;;;21.05;56.19
3250;BME280;1637;42.020;23.992;2022-11-20T08:07:53;92284.41;;;21.43;55.30
3250;BME280;1637;42.020;23.992;2022-11-20T08:10:20;92271.72;;;21.35;55.46
3250;BME280;1637;42.020;23.992;2022-11-20T08:12:48;92270.25;;;20.67;57.14
3250;BME280;1637;42.020;23.992;2022-11-20T08:15:33;92270.84;;;20.16;58.30
3250;BME280;1637;42.020;23.992;2022-11-20T08:18:05;92260.69;;;20.16;58.89
3250;BME280;1637;42.020;23.992;2022-11-20T08:20:32;92268.91;;;20.37;58.05
3250;BME280;1637;42.020;23.992;2022-11-20T08:23:02;92304.28;;;20.37;58.24
3250;BME280;1637;42.020;23.992;2022-11-20T08:25:29;92274.88;;;20.61;57.88
3250;BME280;1637;42.020;23.992;2022-11-20T08:28:00;92276.38;;;21.29;56.81
3250;BME280;1637;42.020;23.992;2022-11-20T08:30:28;92278.97;;;22.01;54.18
3250;BME280;1637;42.020;23.992;2022-11-20T08:33:00;92284.69;;;20.99;56.02
3250;BME280;1637;42.020;23.992;2022-11-20T08:35:27;92288.81;;;22.29;53.50
3250;BME280;1637;42.020;23.992;2022-11-20T08:37:54;92304.38;;;21.09;55.49
3250;BME280;1637;42.020;23.992;2022-11-20T08:40:22;92218.34;;;20.30;57.16
3250;BME280;1637;42.020;23.992;2022-11-20T08:42:50;92248.09;;;20.19;57.86
3250;BME280;1637;42.020;23.992;2022-11-20T08:45:18;92272.94;;;20.27;58.27
3250;BME280;1637;42.020;23.992;2022-11-20T08:47:45;92280.03;;;20.04;58.97
3250;BME280;1637;42.020;23.992;2022-11-20T08:50:15;92275.06;;;20.37;57.44
3250;BME280;1637;42.020;23.992;2022-11-20T08:52:42;92283.47;;;20.19;58.42
3250;BME280;1637;42.020;23.992;2022-11-20T08:55:09;92244.84;;;19.80;59.38
3250;BME280;1637;42.020;23.992;2022-11-20T08:57:38;92271.78;;;20.13;58.98
3250;BME280;1637;42.020;23.992;2022-11-20T09:00:06;92265.28;;;20.45;58.11
3250;BME280;1637;42.020;23.992;2022-11-20T09:02:34;92252.78;;;20.53;57.92
3250;BME280;1637;42.020;23.992;2022-11-20T09:05:01;92250.25;;;20.50;58.09
3250;BME280;1637;42.020;23.992;2022-11-20T09:07:28;92244.84;;;19.80;60.11
3250;BME280;1637;42.020;23.992;2022-11-20T09:09:55;92239.94;;;19.64;60.66
3250;BME280;1637;42.020;23.992;2022-11-20T09:12:22;92244.03;;;20.09;59.55
3250;BME280;1637;42.020;23.992;2022-11-20T09:14:50;92239.09;;;19.58;60.55
3250;BME280;1637;42.020;23.992;2022-11-20T09:17:17;92239.28;;;19.54;60.37
3250;BME280;1637;42.020;23.992;2022-11-20T09:19:46;92240.03;;;19.54;60.91
3250;BME280;1637;42.020;23.992;2022-11-20T09:22:12;92244.59;;;19.34;61.41
3250;BME280;1637;42.020;23.992;2022-11-20T09:24:39;92231.78;;;19.34;60.98
3250;BME280;1637;42.020;23.992;2022-11-20T09:27:07;92234.06;;;19.06;62.54
3250;BME280;1637;42.020;23.992;2022-11-20T09:29:33;92229.94;;;19.11;62.17
3250;BME280;1637;42.020;23.992;2022-11-20T09:32:02;92237.03;;;19.23;61.90
3250;BME280;1637;42.020;23.992;2022-11-20T09:34:28;92239.56;;;19.56;61.19
3250;BME280;1637;42.020;23.992;2022-11-20T09:36:55;92238.34;;;19.13;62.02
3250;BME280;1637;42.020;23.992;2022-11-20T09:39:22;92240.22;;;19.07;62.53
3250;BME280;1637;42.020;23.992;2022-11-20T09:42:03;92233.84;;;19.25;62.20
3250;BME280;1637;42.020;23.992;2022-11-20T09:44:48;92240.97;;;19.22;61.92
3250;BME280;1637;42.020;23.992;2022-11-20T09:47:28;92229.06;;;19.34;61.06
3250;BME280;1637;42.020;23.992;2022-11-20T09:50:07;92232.81;;;19.22;61.83
3250;BME280;1637;42.020;23.992;2022-11-20T09:52:46;92237.41;;;18.86;62.01
3250;BME280;1637;42.020;23.992;2022-11-20T09:55:16;92219.06;;;18.96;62.42
3250;BME280;1637;42.020;23.992;2022-11-20T09:57:46;92231.16;;;19.10;61.42
3250;BME280;1637;42.020;23.992;2022-11-20T10:00:15;92208.03;;;19.29;60.89
3250;BME280;1637;42.020;23.992;2022-11-20T10:02:49;92213.88;;;19.57;60.84
3250;BME280;1637;42.020;23.992;2022-11-20T10:05:22;92213.19;;;19.77;59.93
3250;BME280;1637;42.020;23.992;2022-11-20T10:07:53;92216.44;;;20.16;59.15
3250;BME280;1637;42.020;23.992;2022-11-20T10:10:30;92221.09;;;20.50;58.12
3250;BME280;1637;42.020;23.992;2022-11-20T10:13:12;92210.09;;;21.11;56.30
3250;BME280;1637;42.020;23.992;2022-11-20T10:15:52;92217.28;;;20.88;56.27
3250;BME280;1637;42.020;23.992;2022-11-20T10:18:33;92204.47;;;20.69;56.96
3250;BME280;1637;42.020;23.992;2022-11-20T10:21:09;92190.97;;;20.54;57.31
3250;BME280;1637;42.020;23.992;2022-11-20T10:23:51;92197.69;;;20.38;57.20
3250;BME280;1637;42.020;23.992;2022-11-20T10:26:29;92206.28;;;20.16;57.94
3250;BME280;1637;42.020;23.992;2022-11-20T10:29:07;92191.34;;;20.06;58.32
3250;BME280;1637;42.020;23.992;2022-11-20T10:31:38;92163.59;;;19.82;58.63
3250;BME280;1637;42.020;23.992;2022-11-20T10:34:16;92225.09;;;20.14;58.59
3250;BME280;1637;42.020;23.992;2022-11-20T10:36:48;92199.03;;;20.08;58.08
3250;BME280;1637;42.020;23.992;2022-11-20T10:39:20;92202.09;;;20.15;58.55
3250;BME280;1637;42.020;23.992;2022-11-20T10:41:52;92207.97;;;19.73;59.63
3250;BME280;1637;42.020;23.992;2022-11-20T10:44:20;92200.63;;;19.79;59.17
3250;BME280;1637;42.020;23.992;2022-11-20T10:47:02;92189.75;;;19.30;59.96
3250;BME280;1637;42.020;23.992;2022-11-20T10:49:32;92193.75;;;19.34;60.48
3250;BME280;1637;42.020;23.992;2022-11-20T10:52:05;92197.25;;;19.20;60.54
3250;BME280;1637;42.020;23.992;2022-11-20T10:54:40;92212.22;;;19.30;60.50
3250;BME280;1637;42.020;23.992;2022-11-20T10:57:20;92207.81;;;19.47;60.18
3250;BME280;1637;42.020;23.992;2022-11-20T11:00:02;92180.88;;;19.14;60.61
3250;BME280;1637;42.020;23.992;2022-11-20T11:02:35;92195.34;;;19.55;60.69
3250;BME280;1637;42.020;23.992;2022-11-20T11:05:22;92203.50;;;19.55;60.02
3250;BME280;1637;42.020;23.992;2022-11-20T11:07:54;92201.47;;;19.06;60.93
3250;BME280;1637;42.020;23.992;2022-11-20T11:10:24;92185.75;;;18.96;61.04
3250;BME280;1637;42.020;23.992;2022-11-20T11:12:52;92190.25;;;18.99;61.35
3250;BME280;1637;42.020;23.992;2022-11-20T11:15:26;92179.28;;;18.93;60.80
3250;BME280;1637;42.020;23.992;2022-11-20T11:17:54;92179.84;;;18.97;60.59
3250;BME280;1637;42.020;23.992;2022-11-20T11:20:23;92188.63;;;19.21;60.37
3250;BME280;1637;42.020;23.992;2022-11-20T11:22:52;92189.06;;;19.35;60.55
3250;BME280;1637;42.020;23.992;2022-11-20T11:25:26;92193.09;;;19.39;60.14
3250;BME280;1637;42.020;23.992;2022-11-20T11:27:55;92188.72;;;19.27;60.82
3250;BME280;1637;42.020;23.992;2022-11-20T11:30:24;92171.97;;;19.29;59.95
3250;BME280;1637;42.020;23.992;2022-11-20T11:33:02;92173.13;;;19.57;60.69
3250;BME280;1637;42.020;23.992;2022-11-20T11:35:30;92180.09;;;19.43;60.12
3250;BME280;1637;42.020;23.992;2022-11-20T11:38:04;92173.66;;;19.76;59.96
3250;BME280;1637;42.020;23.992;2022-11-20T11:40:32;92177.28;;;19.38;60.98
3250;BME280;1637;42.020;23.992;2022-11-20T11:43:04;92184.81;;;19.28;60.75
3250;BME280;1637;42.020;23.992;2022-11-20T11:45:53;92181.06;;;19.26;61.15
3250;BME280;1637;42.020;23.992;2022-11-20T11:48:20;92162.06;;;18.96;61.57
3250;BME280;1637;42.020;23.992;2022-11-20T11:50:50;92189.69;;;18.80;61.76
3250;BME280;1637;42.020;23.992;2022-11-20T11:53:18;92138.06;;;18.50;62.11
3250;BME280;1637;42.020;23.992;2022-11-20T11:55:50;92188.34;;;18.75;62.25
3250;BME280;1637;42.020;23.992;2022-11-20T11:58:29;92185.00;;;18.80;62.48
3250;BME280;1637;42.020;23.992;2022-11-20T12:01:02;92182.28;;;18.66;62.41
3250;BME280;1637;42.020;23.992;2022-11-20T12:03:35;92168.28;;;18.43;62.99
3250;BME280;1637;42.020;23.992;2022-11-20T12:06:08;92185.19;;;18.62;63.29
3250;BME280;1637;42.020;23.992;2022-11-20T12:08:43;92188.97;;;18.55;63.59
3250;BME280;1637;42.020;23.992;2022-11-20T12:11:13;92196.97;;;18.74;63.61
3250;BME280;1637;42.020;23.992;2022-11-20T12:13:49;92192.72;;;18.58;63.71
3250;BME280;1637;42.020;23.992;2022-11-20T12:16:20;92177.38;;;18.16;64.69
3250;BME280;1637;42.020;23.992;2022-11-20T12:18:49;92188.13;;;18.49;64.66
3250;BME280;1637;42.020;23.992;2022-11-20T12:21:28;92193.13;;;18.27;65.03
3250;BME280;1637;42.020;23.992;2022-11-20T12:24:28;92199.59;;;18.06;65.79
3250;BME280;1637;42.020;23.992;2022-11-20T12:27:04;92202.88;;;18.10;65.71
3250;BME280;1637;42.020;23.992;2022-11-20T12:29:42;92214.91;;;18.33;66.30
3250;BME280;1637;42.020;23.992;2022-11-20T12:32:31;92212.19;;;18.33;66.13
3250;BME280;1637;42.020;23.992;2022-11-20T12:35:11;92209.75;;;18.20;67.30
3250;BME280;1637;42.020;23.992;2022-11-20T12:37:48;92219.09;;;18.19;68.91
3250;BME280;1637;42.020;23.992;2022-11-20T12:40:28;92217.47;;;17.65;72.82
3250;BME280;1637;42.020;23.992;2022-11-20T12:43:06;92218.38;;;17.10;77.30
3250;BME280;1637;42.020;23.992;2022-11-20T12:46:08;92221.44;;;16.85;82.17
3250;BME280;1637;42.020;23.992;2022-11-20T12:51:52;92195.94;;;16.22;89.44
3250;BME280;1637;42.020;23.992;2022-11-20T12:54:40;92238.72;;;16.33;90.38
3250;BME280;1637;42.020;23.992;2022-11-20T12:57:18;92228.22;;;16.62;89.90
3250;BME280;1637;42.020;23.992;2022-11-20T13:00:01;92250.91;;;16.37;89.03
3250;BME280;1637;42.020;23.992;2022-11-20T13:02:36;92246.81;;;16.05;95.87
3250;BME280;1637;42.020;23.992;2022-11-20T13:05:19;92259.28;;;16.12;94.69
3250;BME280;1637;42.020;23.992;2022-11-20T13:07:51;92279.63;;;15.76;96.25
3250;BME280;1637;42.020;23.992;2022-11-20T13:10:30;92274.25;;;15.55;95.43
3250;BME280;1637;42.020;23.992;2022-11-20T13:13:01;92287.50;;;15.62;92.70
3250;BME280;1637;42.020;23.992;2022-11-20T13:15:42;92285.94;;;15.52;89.89
3250;BME280;1637;42.020;23.992;2022-11-20T13:18:13;92289.34;;;15.12;91.54
3250;BME280;1637;42.020;23.992;2022-11-20T13:20:44;92300.69;;;15.07;90.38
3250;BME280;1637;42.020;23.992;2022-11-20T13:23:11;92309.19;;;14.96;92.94
3250;BME280;1637;42.020;23.992;2022-11-20T13:25:39;92294.03;;;14.55;94.30
3250;BME280;1637;42.020;23.992;2022-11-20T13:28:26;92304.78;;;14.68;95.75